createdAt,value
2018-03-20T00:02:05.199Z,98790.59
2018-03-20T00:04:34.422Z,98790.03
2018-03-20T00:07:02.759Z,98792.73
2018-03-20T00:09:32.239Z,98792.93
2018-03-20T00:12:00.564Z,98796.47
2018-03-20T00:14:29.487Z,98794.86
2018-03-20T00:16:58.783Z,98799.67
2018-03-20T00:19:27.738Z,98799.11
2018-03-20T00:21:56.063Z,98794.57
2018-03-20T00:24:25.357Z,98794.50
2018-03-20T00:26:53.706Z,98792.66
2018-03-20T00:29:22.428Z,98796.91
2018-03-20T00:31:51.570Z,98786.30
2018-03-20T00:34:20.368Z,98788.25
2018-03-20T00:36:49.450Z,98779.57
2018-03-20T00:39:17.809Z,98783.23
2018-03-20T00:41:47.679Z,98787.17
2018-03-20T00:44:16.054Z,98789.25
2018-03-20T00:46:45.563Z,98778.59
2018-03-20T00:49:16.503Z,98785.95
2018-03-20T00:51:45.680Z,98787.86
2018-03-20T00:54:14.018Z,98794.84
2018-03-20T00:56:44.924Z,98784.92
2018-03-20T00:59:14.363Z,98787.98
2018-03-20T01:01:43.593Z,98784.16
2018-03-20T01:04:11.975Z,98794.42
2018-03-20T01:06:40.642Z,98788.41
2018-03-20T01:09:09.004Z,98785.53
2018-03-20T01:11:37.795Z,98790.33
2018-03-20T01:14:06.129Z,98786.60
2018-03-20T01:16:35.302Z,98785.32
2018-03-20T01:19:04.647Z,98786.16
2018-03-20T01:21:34.107Z,98779.86
2018-03-20T01:24:03.140Z,98786.34
2018-03-20T01:26:34.317Z,98778.34
2018-03-20T01:29:10.306Z,98778.27
2018-03-20T01:31:39.460Z,98777.87
2018-03-20T01:34:08.585Z,98778.98
2018-03-20T01:36:37.002Z,98778.53
2018-03-20T01:39:05.581Z,98783.02
2018-03-20T01:41:33.928Z,98787.28
2018-03-20T01:44:02.368Z,98787.31
2018-03-20T01:46:30.702Z,98794.23
2018-03-20T01:48:59.090Z,98788.73
2018-03-20T01:51:27.415Z,98789.07
2018-03-20T01:53:55.802Z,98791.44
2018-03-20T01:56:24.679Z,98789.72
2018-03-20T01:58:53.102Z,98790.35
2018-03-20T02:01:22.300Z,98786.52
2018-03-20T02:03:52.414Z,98783.05
2018-03-20T02:06:22.466Z,98787.19
2018-03-20T02:08:50.886Z,98787.55
2018-03-20T02:11:19.228Z,98778.98
2018-03-20T02:13:48.869Z,98783.65
2018-03-20T02:16:18.083Z,98780.48
2018-03-20T02:18:46.454Z,98785.98
2018-03-20T02:21:15.651Z,98783.33
2018-03-20T02:23:45.304Z,98782.47
2018-03-20T02:26:14.115Z,98786.28
2018-03-20T02:28:42.734Z,98787.08
2018-03-20T02:31:12.929Z,98792.87
2018-03-20T02:33:43.052Z,98795.48
2018-03-20T02:36:11.649Z,98789.51
2018-03-20T02:38:39.988Z,98794.43
2018-03-20T02:41:08.357Z,98791.13
2018-03-20T02:43:36.940Z,98787.59
2018-03-20T02:46:07.522Z,98792.02
2018-03-20T02:48:36.896Z,98795.89
2018-03-20T02:51:05.569Z,98799.33
2018-03-20T02:53:35.442Z,98791.40
2018-03-20T02:56:03.851Z,98797.05
2018-03-20T02:58:32.171Z,98796.75
2018-03-20T03:01:05.769Z,98799.83
2018-03-20T03:03:36.804Z,98804.45
2018-03-20T03:06:06.799Z,98804.88
2018-03-20T03:08:35.138Z,98809.95
2018-03-20T03:11:04.576Z,98806.06
2018-03-20T03:13:33.545Z,98809.14
2018-03-20T03:16:01.913Z,98804.36
2018-03-20T03:18:30.497Z,98802.36
2018-03-20T03:20:58.859Z,98799.26
2018-03-20T03:23:27.272Z,98799.16
2018-03-20T03:25:56.945Z,98807.90
2018-03-20T03:28:26.694Z,98808.88
2018-03-20T03:30:56.604Z,98810.59
2018-03-20T03:33:25.022Z,98807.28
2018-03-20T03:35:54.313Z,98796.54
2018-03-20T03:38:24.193Z,98791.94
2018-03-20T03:40:52.657Z,98792.29
2018-03-20T03:43:21.996Z,98801.91
2018-03-20T03:45:51.034Z,98807.26
2018-03-20T03:48:19.377Z,98803.28
2018-03-20T03:50:49.035Z,98803.97
2018-03-20T03:53:18.456Z,98805.28
2018-03-20T03:55:48.104Z,98805.70
2018-03-20T03:58:17.222Z,98810.45
2018-03-20T04:00:46.062Z,98813.54
2018-03-20T04:03:15.388Z,98817.95
2018-03-20T04:05:43.811Z,98816.38
2018-03-20T04:08:12.173Z,98821.92
2018-03-20T04:10:41.264Z,98816.53
2018-03-20T04:13:10.536Z,98813.53
2018-03-20T04:15:39.171Z,98810.62
2018-03-20T04:18:08.524Z,98801.52
2018-03-20T04:20:36.892Z,98808.02
2018-03-20T04:23:06.153Z,98805.45
2018-03-20T04:25:34.583Z,98804.66
2018-03-20T04:28:04.661Z,98807.20
2018-03-20T04:30:33.835Z,98804.67
2018-03-20T04:33:02.204Z,98802.98
2018-03-20T04:35:30.917Z,98797.02
2018-03-20T04:37:59.338Z,98780.66
2018-03-20T04:40:27.684Z,98786.27
2018-03-20T04:42:56.790Z,98790.48
2018-03-20T04:45:25.927Z,98797.82
2018-03-20T04:47:55.593Z,98804.67
2018-03-20T04:50:25.639Z,98800.68
2018-03-20T04:52:54.771Z,98797.36
2018-03-20T04:55:24.137Z,98790.70
2018-03-20T04:57:53.699Z,98787.23
2018-03-20T05:00:23.044Z,98778.70
2018-03-20T05:02:52.468Z,98787.66
2018-03-20T05:05:22.320Z,98801.80
2018-03-20T05:07:50.698Z,98793.39
2018-03-20T05:10:19.944Z,98784.84
2018-03-20T05:12:48.666Z,98794.63
2018-03-20T05:15:17.943Z,98787.52
2018-03-20T05:17:57.609Z,98785.38
2018-03-20T05:20:32.750Z,98790.01
2018-03-20T05:23:01.652Z,98777.65
2018-03-20T05:25:30.024Z,98779.73
2018-03-20T05:27:58.363Z,98777.36
2018-03-20T05:30:28.272Z,98777.56
2018-03-20T05:32:56.600Z,98797.27
2018-03-20T05:35:25.019Z,98802.81
2018-03-20T05:37:53.517Z,98804.58
2018-03-20T05:40:22.600Z,98812.98
2018-03-20T05:42:51.023Z,98812.00
2018-03-20T05:45:19.681Z,98817.92
2018-03-20T05:51:24.747Z,98804.55
2018-03-20T05:53:53.135Z,98805.40
2018-03-20T05:56:22.304Z,98811.29
2018-03-20T05:58:51.443Z,98812.12
2018-03-20T06:01:20.621Z,98818.58
2018-03-20T06:03:48.990Z,98815.95
2018-03-20T06:06:17.471Z,98814.58
2018-03-20T06:08:47.124Z,98817.84
2018-03-20T06:11:17.299Z,98816.83
2018-03-20T06:13:45.768Z,98827.05
2018-03-20T06:16:16.152Z,98824.33
2018-03-20T06:18:45.786Z,98824.73
2018-03-20T06:21:14.168Z,98827.30
2018-03-20T06:23:44.444Z,98829.63
2018-03-20T06:26:12.873Z,98831.38
2018-03-20T06:28:42.138Z,98833.86
2018-03-20T06:31:11.176Z,98829.12
2018-03-20T06:33:40.957Z,98830.08
2018-03-20T06:36:10.218Z,98829.25
2018-03-20T06:38:40.308Z,98826.92
2018-03-20T06:41:09.944Z,98833.92
2018-03-20T06:43:40.396Z,98835.97
2018-03-20T06:46:11.345Z,98838.64
2018-03-20T06:48:40.348Z,98838.14
2018-03-20T06:51:10.263Z,98840.14
2018-03-20T06:53:38.627Z,98839.99
2018-03-20T06:56:07.975Z,98835.30
2018-03-20T06:58:37.374Z,98838.05
2018-03-20T07:01:06.062Z,98846.92
2018-03-20T07:03:36.576Z,98844.73
2018-03-20T07:06:06.098Z,98843.59
2018-03-20T07:08:34.493Z,98840.80
2018-03-20T07:11:02.815Z,98838.41
2018-03-20T07:13:31.871Z,98833.77
2018-03-20T07:16:01.872Z,98832.39
2018-03-20T07:18:31.624Z,98827.15
2018-03-20T07:21:00.724Z,98821.77
2018-03-20T07:23:29.080Z,98835.34
2018-03-20T07:25:58.281Z,98833.80
2018-03-20T07:28:28.269Z,98836.60
2018-03-20T07:30:57.263Z,98838.93
2018-03-20T07:33:25.713Z,98852.19
2018-03-20T07:35:55.664Z,98853.37
2018-03-20T07:38:24.806Z,98858.84
2018-03-20T07:40:55.404Z,98860.64
2018-03-20T07:43:26.447Z,98856.74
2018-03-20T07:45:56.204Z,98859.98
2018-03-20T07:48:25.589Z,98861.16
2018-03-20T07:50:55.420Z,98863.28
2018-03-20T07:53:27.876Z,98864.78
2018-03-20T07:55:57.659Z,98869.03
2018-03-20T07:58:26.903Z,98868.73
2018-03-20T08:00:55.276Z,98875.69
2018-03-20T08:03:26.559Z,98878.46
2018-03-20T08:05:56.063Z,98870.09
2018-03-20T08:08:24.492Z,98876.64
2018-03-20T08:10:53.067Z,98873.01
2018-03-20T08:13:22.805Z,98882.92
2018-03-20T08:15:52.577Z,98883.55
2018-03-20T08:18:22.839Z,98883.17
2018-03-20T08:20:52.918Z,98893.80
2018-03-20T08:23:22.120Z,98897.48
2018-03-20T08:25:51.659Z,98897.45
2018-03-20T08:28:21.440Z,98901.95
2018-03-20T08:30:51.143Z,98889.87
2018-03-20T08:33:20.355Z,98894.52
2018-03-20T08:35:49.001Z,98881.64
2018-03-20T08:38:19.959Z,98871.19
2018-03-20T08:40:48.802Z,98876.48
2018-03-20T08:43:19.938Z,98876.70
2018-03-20T08:45:50.125Z,98869.73
2018-03-20T08:48:22.601Z,98878.13
2018-03-20T08:50:52.336Z,98883.86
2018-03-20T08:53:21.994Z,98884.31
2018-03-20T08:55:51.349Z,98885.75
2018-03-20T08:58:21.253Z,98891.39
2018-03-20T09:00:49.856Z,98896.11
2018-03-20T09:03:19.352Z,98896.92
2018-03-20T09:05:48.183Z,98889.78
2018-03-20T09:08:16.610Z,98883.98
2018-03-20T09:10:46.884Z,98889.71
2018-03-20T09:13:16.693Z,98889.58
2018-03-20T09:15:46.552Z,98895.14
2018-03-20T09:18:15.355Z,98904.27
2018-03-20T09:20:43.719Z,98906.28
2018-03-20T09:23:13.313Z,98908.01
2018-03-20T09:25:42.850Z,98908.28
2018-03-20T09:28:12.623Z,98915.41
2018-03-20T09:30:42.123Z,98913.92
2018-03-20T09:33:12.639Z,98918.89
2018-03-20T09:35:41.732Z,98921.52
2018-03-20T09:38:10.904Z,98927.56
2018-03-20T09:40:40.819Z,98923.15
2018-03-20T09:43:09.863Z,98922.94
2018-03-20T09:45:38.659Z,98921.84
2018-03-20T09:48:07.298Z,98923.20
2018-03-20T09:50:37.043Z,98924.80
2018-03-20T09:53:05.463Z,98926.48
2018-03-20T09:55:35.812Z,98933.05
2018-03-20T09:58:04.170Z,98928.74
2018-03-20T10:00:32.534Z,98927.66
2018-03-20T10:03:00.908Z,98924.33
2018-03-20T10:05:30.341Z,98922.98
2018-03-20T10:08:00.367Z,98922.94
2018-03-20T10:10:29.074Z,98931.86
2018-03-20T10:13:01.224Z,98936.02
2018-03-20T10:15:31.203Z,98934.06
2018-03-20T10:18:00.855Z,98936.95
2018-03-20T10:20:29.919Z,98942.78
2018-03-20T10:22:58.709Z,98943.64
2018-03-20T10:25:27.302Z,98939.89
2018-03-20T10:27:57.276Z,98945.42
2018-03-20T10:30:26.461Z,98945.24
2018-03-20T10:32:55.761Z,98946.88
2018-03-20T10:35:25.006Z,98956.35
2018-03-20T10:37:53.400Z,98954.74
2018-03-20T10:40:24.750Z,98960.39
2018-03-20T10:42:55.243Z,98957.30
2018-03-20T10:45:23.650Z,98950.25
2018-03-20T10:47:54.690Z,98959.30
2018-03-20T10:50:24.291Z,98956.25
2018-03-20T10:52:52.773Z,98964.94
2018-03-20T10:55:21.878Z,98966.28
2018-03-20T10:57:51.302Z,98973.23
2018-03-20T11:00:26.792Z,98974.28
2018-03-20T11:02:57.076Z,98973.69
2018-03-20T11:05:26.368Z,98978.03
2018-03-20T11:07:55.063Z,98993.16
2018-03-20T11:10:24.243Z,99001.48
2018-03-20T11:12:54.077Z,99006.17
2018-03-20T11:15:23.753Z,99008.30
2018-03-20T11:17:53.617Z,99013.72
2018-03-20T11:20:23.388Z,99008.39
2018-03-20T11:22:53.192Z,99010.81
2018-03-20T11:25:21.971Z,99016.45
2018-03-20T11:27:51.393Z,99020.86
2018-03-20T11:30:19.795Z,99018.36
2018-03-20T11:32:49.829Z,99017.78
2018-03-20T11:35:20.388Z,99017.42
2018-03-20T11:37:48.880Z,99033.14
2018-03-20T11:40:17.261Z,99035.28
2018-03-20T11:42:50.123Z,99036.69
2018-03-20T11:45:19.429Z,99041.70
2018-03-20T11:47:49.118Z,99041.33
2018-03-20T11:50:18.432Z,99042.26
2018-03-20T11:52:47.542Z,99044.09
2018-03-20T11:55:17.868Z,99053.53
2018-03-20T11:57:47.719Z,99053.63
2018-03-20T12:00:18.081Z,99058.77
2018-03-20T12:02:47.455Z,99060.94
2018-03-20T12:05:16.991Z,99070.40
2018-03-20T12:07:55.590Z,99064.17
2018-03-20T12:10:23.912Z,99072.36
2018-03-20T12:12:53.046Z,99079.24
2018-03-20T12:15:21.729Z,99077.86
2018-03-20T12:17:52.214Z,99082.72
2018-03-20T12:20:20.890Z,99087.70
2018-03-20T12:22:49.347Z,99088.13
2018-03-20T12:25:17.795Z,99077.55
2018-03-20T12:27:48.383Z,99090.51
2018-03-20T12:30:17.384Z,99092.09
2018-03-20T12:32:46.764Z,99095.83
2018-03-20T12:35:15.208Z,99099.86
2018-03-20T12:37:44.549Z,99089.67
2018-03-20T12:40:13.700Z,99092.92
2018-03-20T12:42:42.022Z,99101.99
2018-03-20T12:45:10.384Z,99097.88
2018-03-20T12:47:40.204Z,99097.41
2018-03-20T12:50:10.078Z,99092.23
2018-03-20T12:52:39.353Z,99103.35
2018-03-20T12:55:08.679Z,99107.25
2018-03-20T12:57:38.136Z,99114.07
2018-03-20T13:00:09.538Z,99103.32
2018-03-20T13:02:38.936Z,99113.47
2018-03-20T13:05:09.541Z,99117.57
2018-03-20T13:07:39.428Z,99113.61
2018-03-20T13:10:09.576Z,99128.17
2018-03-20T13:12:38.787Z,99128.16
2018-03-20T13:15:09.259Z,99133.09
2018-03-20T13:17:38.312Z,99126.27
2018-03-20T13:20:08.089Z,99127.00
2018-03-20T13:22:43.560Z,99129.36
2018-03-20T13:25:13.484Z,99121.83
2018-03-20T13:27:44.776Z,99123.42
2018-03-20T13:30:16.602Z,99126.93
2018-03-20T13:32:45.812Z,99138.39
2018-03-20T13:35:14.219Z,99129.86
2018-03-20T13:37:42.608Z,99129.12
2018-03-20T13:40:11.073Z,99134.12
2018-03-20T13:42:41.553Z,99136.68
2018-03-20T13:45:13.040Z,99138.30
2018-03-20T13:47:41.440Z,99137.27
2018-03-20T13:50:11.279Z,99140.41
2018-03-20T13:52:40.225Z,99135.61
2018-03-20T13:55:10.696Z,99138.22
2018-03-20T13:57:39.856Z,99145.63
2018-03-20T14:00:10.887Z,99145.56
2018-03-20T14:02:39.387Z,99147.95
2018-03-20T14:05:09.043Z,99144.03
2018-03-20T14:07:38.336Z,99152.17
2018-03-20T14:10:06.716Z,99156.28
2018-03-20T14:12:36.265Z,99160.34
2018-03-20T14:15:06.062Z,99163.12
2018-03-20T14:17:34.456Z,99159.34
2018-03-20T14:20:08.314Z,99157.00
2018-03-20T14:22:38.080Z,99160.34
2018-03-20T14:25:08.827Z,99160.50
2018-03-20T14:27:38.747Z,99161.31
2018-03-20T14:30:08.356Z,99172.03
2018-03-20T14:32:39.995Z,99173.61
2018-03-20T14:35:08.365Z,99174.98
2018-03-20T14:37:36.823Z,99182.66
2018-03-20T14:40:05.199Z,99186.04
2018-03-20T14:42:34.404Z,99195.28
2018-03-20T14:45:04.671Z,99190.12
2018-03-20T14:47:33.145Z,99201.34
2018-03-20T14:50:01.502Z,99204.84
2018-03-20T14:52:32.135Z,99200.39
2018-03-20T14:55:02.039Z,99202.27
2018-03-20T14:57:31.375Z,99205.86
2018-03-20T15:00:01.285Z,99206.13
2018-03-20T15:02:31.755Z,99204.86
2018-03-20T15:05:03.198Z,99210.11
2018-03-20T15:07:32.424Z,99216.76
2018-03-20T15:10:00.815Z,99208.16
2018-03-20T15:12:31.939Z,99205.38
2018-03-20T15:15:03.363Z,99215.13
2018-03-20T15:17:35.518Z,99215.27
2018-03-20T15:20:04.937Z,99220.95
2018-03-20T15:22:34.157Z,99219.17
2018-03-20T15:25:04.124Z,99225.02
2018-03-20T15:27:33.454Z,99227.70
2018-03-20T15:30:03.540Z,99232.89
2018-03-20T15:32:32.749Z,99237.30
2018-03-20T15:35:01.828Z,99250.36
2018-03-20T15:37:30.360Z,99252.27
2018-03-20T15:39:58.790Z,99251.30
2018-03-20T15:42:28.068Z,99257.62
2018-03-20T15:44:56.464Z,99255.78
2018-03-20T15:47:25.011Z,99264.46
2018-03-20T15:49:54.031Z,99266.30
2018-03-20T15:52:23.297Z,99272.16
2018-03-20T15:54:51.732Z,99282.17
2018-03-20T15:57:20.109Z,99283.90
2018-03-20T15:59:51.163Z,99292.23
2018-03-20T16:02:20.114Z,99287.30
2018-03-20T16:04:48.462Z,99301.27
2018-03-20T16:07:16.878Z,99304.30
2018-03-20T16:09:45.338Z,99307.08
2018-03-20T16:12:14.702Z,99313.99
2018-03-20T16:14:44.986Z,99315.16
2018-03-20T16:17:18.566Z,99325.85
2018-03-20T16:19:47.336Z,99316.75
2018-03-20T16:22:18.248Z,99327.34
2018-03-20T16:24:48.055Z,99324.23
2018-03-20T16:27:16.507Z,99331.49
2018-03-20T16:29:45.457Z,99332.19
2018-03-20T16:32:13.872Z,99339.28
2018-03-20T16:34:42.704Z,99345.05
2018-03-20T16:37:11.618Z,99352.30
2018-03-20T16:39:40.946Z,99354.88
2018-03-20T16:42:10.212Z,99364.15
2018-03-20T16:44:40.367Z,99361.74
2018-03-20T16:47:09.050Z,99367.49
2018-03-20T16:49:37.463Z,99372.97
2018-03-20T16:52:06.517Z,99376.36
2018-03-20T16:54:35.613Z,99382.50
2018-03-20T16:57:04.657Z,99385.80
2018-03-20T16:59:35.239Z,99396.12
2018-03-20T17:02:05.428Z,99399.69
2018-03-20T17:04:34.046Z,99386.86
2018-03-20T17:07:03.778Z,99407.77
2018-03-20T17:09:33.060Z,99410.16
2018-03-20T17:12:02.452Z,99416.19
2018-03-20T17:14:32.875Z,99419.69
2018-03-20T17:17:01.245Z,99424.39
2018-03-20T17:19:29.644Z,99426.97
2018-03-20T17:21:58.292Z,99435.25
2018-03-20T17:24:26.877Z,99441.45
2018-03-20T17:26:55.744Z,99447.94
2018-03-20T17:29:25.696Z,99448.12
2018-03-20T17:31:54.882Z,99460.09
2018-03-20T17:34:23.988Z,99460.45
2018-03-20T17:36:53.039Z,99453.25
2018-03-20T17:39:22.231Z,99470.73
2018-03-20T17:41:52.363Z,99468.03
2018-03-20T17:44:21.773Z,99480.35
2018-03-20T17:46:52.419Z,99487.41
2018-03-20T17:49:21.667Z,99489.50
2018-03-20T17:51:52.117Z,99494.02
2018-03-20T17:54:21.006Z,99506.78
2018-03-20T17:56:50.580Z,99511.55
2018-03-20T17:59:22.660Z,99520.28
2018-03-20T18:01:52.953Z,99524.83
2018-03-20T18:04:21.384Z,99527.73
2018-03-20T18:06:50.458Z,99529.92
2018-03-20T18:09:19.860Z,99537.06
2018-03-20T18:11:49.411Z,99539.23
2018-03-20T18:14:21.389Z,99544.13
2018-03-20T18:16:53.677Z,99554.16
2018-03-20T18:19:22.883Z,99552.29
2018-03-20T18:21:52.530Z,99554.26
2018-03-20T18:24:22.503Z,99557.20
2018-03-20T18:26:51.429Z,99568.56
2018-03-20T18:29:20.730Z,99570.62
2018-03-20T18:31:50.247Z,99571.06
2018-03-20T18:34:19.000Z,99574.45
2018-03-20T18:36:48.319Z,99576.31
2018-03-20T18:39:17.559Z,99584.05
2018-03-20T18:41:45.914Z,99583.22
2018-03-20T18:44:15.308Z,99591.08
2018-03-20T18:46:45.988Z,99594.86
2018-03-20T18:49:15.682Z,99594.45
2018-03-20T18:51:46.580Z,99596.08
2018-03-20T18:54:15.730Z,99605.17
2018-03-20T18:56:44.152Z,99604.41
2018-03-20T18:59:12.476Z,99611.59
2018-03-20T19:01:41.663Z,99615.86
2018-03-20T19:04:10.841Z,99629.82
2018-03-20T19:06:41.745Z,99626.32
2018-03-20T19:09:11.779Z,99631.13
2018-03-20T19:11:40.244Z,99635.84
2018-03-20T19:14:09.689Z,99641.98
2018-03-20T19:16:42.058Z,99639.23
2018-03-20T19:19:10.908Z,99646.78
2018-03-20T19:21:40.510Z,99653.02
2018-03-20T19:24:10.224Z,99657.75
2018-03-20T19:29:18.664Z,99663.56
2018-03-20T19:31:48.209Z,99666.59
2018-03-20T19:34:17.961Z,99673.71
2018-03-20T19:36:47.813Z,99680.10
2018-03-20T19:39:16.465Z,99689.14
2018-03-20T19:41:45.641Z,99699.37
2018-03-20T19:44:15.087Z,99708.16
2018-03-20T19:46:44.796Z,99715.24
2018-03-20T19:49:16.584Z,99715.89
2018-03-20T19:51:47.449Z,99719.47
2018-03-20T19:54:15.823Z,99720.30
2018-03-20T19:56:48.165Z,99719.95
2018-03-20T19:59:19.491Z,99717.45
2018-03-20T20:01:48.011Z,99726.67
2018-03-20T20:04:16.441Z,99724.48
2018-03-20T20:06:44.818Z,99733.36
2018-03-20T20:09:14.146Z,99731.32
2018-03-20T20:11:43.361Z,99739.64
2018-03-20T20:14:12.577Z,99743.09
2018-03-20T20:16:40.947Z,99746.48
2018-03-20T20:19:10.266Z,99746.53
2018-03-20T20:21:39.339Z,99750.85
2018-03-20T20:24:08.679Z,99759.66
2018-03-20T20:26:37.055Z,99759.70
2018-03-20T20:29:06.336Z,99764.42
2018-03-20T20:31:35.152Z,99770.19
2018-03-20T20:34:06.208Z,99771.72
2018-03-20T20:36:34.966Z,99778.68
2018-03-20T20:39:04.660Z,99778.86
2018-03-20T20:41:34.801Z,99788.87
2018-03-20T20:44:03.197Z,99787.73
2018-03-20T20:46:32.429Z,99792.53
2018-03-20T20:49:00.757Z,99795.54
2018-03-20T20:51:29.329Z,99788.99
2018-03-20T20:53:58.228Z,99788.28
2018-03-20T20:56:27.468Z,99797.72
2018-03-20T20:58:56.672Z,99796.78
2018-03-20T21:01:25.574Z,99804.23
2018-03-20T21:03:55.712Z,99803.82
2018-03-20T21:06:25.992Z,99802.05
2018-03-20T21:08:55.599Z,99803.36
2018-03-20T21:11:26.027Z,99810.78
2018-03-20T21:13:54.582Z,99809.94
2018-03-20T21:16:23.534Z,99813.08
2018-03-20T21:18:51.955Z,99811.78
2018-03-20T21:21:20.358Z,99812.77
2018-03-20T21:23:49.630Z,99809.38
2018-03-20T21:26:18.004Z,99818.19
2018-03-20T21:28:48.760Z,99822.58
2018-03-20T21:31:20.034Z,99821.45
2018-03-20T21:33:50.048Z,99824.52
2018-03-20T21:36:19.277Z,99830.59
2018-03-20T21:38:47.663Z,99833.28
2018-03-20T21:41:16.953Z,99824.48
2018-03-20T21:43:45.474Z,99831.17
2018-03-20T21:46:14.638Z,99832.42
2018-03-20T21:48:45.060Z,99826.79
2018-03-20T21:51:14.287Z,99831.17
2018-03-20T21:53:43.201Z,99832.42
2018-03-20T21:56:11.952Z,99832.52
2018-03-20T21:58:42.067Z,99833.91
2018-03-20T22:01:10.989Z,99828.70
2018-03-20T22:03:41.865Z,99835.26
2018-03-20T22:06:11.117Z,99837.23
2018-03-20T22:08:40.450Z,99838.72
2018-03-20T22:11:08.817Z,99841.81
2018-03-20T22:13:38.575Z,99845.72
2018-03-20T22:16:08.817Z,99851.45
2018-03-20T22:18:38.851Z,99855.05
2018-03-20T22:21:08.108Z,99860.66
2018-03-20T22:23:37.390Z,99864.26
2018-03-20T22:26:07.442Z,99865.03
2018-03-20T22:28:38.279Z,99871.13
2018-03-20T22:31:07.514Z,99870.25
2018-03-20T22:33:35.830Z,99868.60
2018-03-20T22:36:06.047Z,99871.64
2018-03-20T22:38:34.465Z,99875.64
2018-03-20T22:41:03.589Z,99879.13
2018-03-20T22:43:32.191Z,99884.83
2018-03-20T22:46:01.289Z,99886.25
2018-03-20T22:48:29.645Z,99895.31
2018-03-20T22:50:58.758Z,99892.79
2018-03-20T22:53:28.025Z,99896.74
2018-03-20T22:55:56.441Z,99902.87
2018-03-20T22:58:27.169Z,99899.34
2018-03-20T23:00:56.497Z,99908.58
2018-03-20T23:03:25.881Z,99911.18
2018-03-20T23:05:54.257Z,99913.44
2018-03-20T23:08:23.122Z,99912.55
2018-03-20T23:10:52.870Z,99913.87
2018-03-20T23:13:22.080Z,99917.42
2018-03-20T23:15:51.556Z,99917.42
2018-03-20T23:18:20.771Z,99917.28
2018-03-20T23:20:50.164Z,99929.98
2018-03-20T23:23:20.350Z,99927.80
2018-03-20T23:25:49.542Z,99937.47
2018-03-20T23:28:19.957Z,99934.42
2018-03-20T23:30:48.607Z,99938.31
2018-03-20T23:33:17.266Z,99941.42
2018-03-20T23:35:45.587Z,99939.70
2018-03-20T23:38:15.208Z,99939.64
2018-03-20T23:40:43.602Z,99937.40
2018-03-20T23:43:12.693Z,99943.99
2018-03-20T23:45:41.294Z,99945.70
2018-03-20T23:48:09.739Z,99944.90
2018-03-20T23:50:38.969Z,99953.98
2018-03-20T23:53:07.961Z,99952.72
2018-03-20T23:55:38.834Z,99952.72
2018-03-20T23:58:08.887Z,99956.16
